Terminal Aerodrome Forecast
Issued by NWS Duluth, MN

Home | Current Version | Previous Version | Text Only | Print | Product List | Glossary On
Versions: 1 2 3 4 5 6 7 8 9 10 11 12 13 14 15 16 17 18 19 20 21 22 23 24 25 26 27 28 29 30 31 32 33
000
FTUS43 KDLH 161734
TAFDLH
TAF
KDLH 161734Z 1618/1718 23005KT P6SM SCT200
     FM170400 34003KT 2SM BR SCT200
      TEMPO 1704/1708 1/2SM FZFG BKN002
     FM170800 00000KT 1/2SM FZFG OVC002
      TEMPO 1708/1712 1/4SM FZFG OVC001
     FM171700 33005KT 4SM BR BKN003=

USA.gov is the U.S. government's official web portal to all federal, state and local government web resources and services.